createdAt,value
2019-05-14T00:00:52.291Z,13.30
2019-05-14T00:03:21.951Z,13.30
2019-05-14T00:05:51.775Z,13.40
2019-05-14T00:08:22.209Z,13.30
2019-05-14T00:10:52.037Z,13.10
2019-05-14T00:13:21.469Z,13.20
2019-05-14T00:15:52.143Z,13.00
2019-05-14T00:18:22.381Z,13.10
2019-05-14T00:20:51.307Z,13.00
2019-05-14T00:23:21.574Z,13.00
2019-05-14T00:25:52.259Z,12.80
2019-05-14T00:28:21.173Z,12.80
2019-05-14T00:30:52.225Z,12.60
2019-05-14T00:33:22.549Z,12.70
2019-05-14T00:35:51.437Z,12.60
2019-05-14T00:38:22.369Z,12.60
2019-05-14T00:40:51.487Z,12.60
2019-05-14T00:43:21.687Z,12.50
2019-05-14T00:45:51.074Z,12.30
2019-05-14T00:48:22.147Z,12.40
2019-05-14T00:50:51.587Z,12.40
2019-05-14T00:53:21.362Z,12.40
2019-05-14T00:55:51.545Z,12.20
2019-05-14T00:58:21.814Z,12.20
2019-05-14T01:00:52.543Z,12.40
2019-05-14T01:03:21.763Z,12.40
2019-05-14T01:05:52.275Z,12.40
2019-05-14T01:08:21.508Z,12.30
2019-05-14T01:10:51.156Z,12.60
2019-05-14T01:13:21.877Z,12.40
2019-05-14T01:15:52.191Z,12.00
2019-05-14T01:18:21.976Z,12.10
2019-05-14T01:20:51.980Z,12.20
2019-05-14T01:23:21.622Z,12.20
2019-05-14T01:25:51.731Z,12.30
2019-05-14T01:28:21.577Z,12.30
2019-05-14T01:30:51.829Z,12.30
2019-05-14T01:33:21.351Z,12.10
2019-05-14T01:35:51.447Z,12.10
2019-05-14T01:38:22.163Z,12.20
2019-05-14T01:40:52.498Z,11.90
2019-05-14T01:43:22.054Z,12.00
2019-05-14T01:45:52.416Z,11.80
2019-05-14T01:48:21.996Z,11.90
2019-05-14T01:50:52.050Z,11.90
2019-05-14T01:53:22.007Z,12.10
2019-05-14T01:55:51.981Z,11.90
2019-05-14T01:58:22.103Z,11.90
2019-05-14T02:00:52.306Z,11.70
2019-05-14T02:03:21.799Z,11.60
2019-05-14T02:05:52.048Z,11.50
2019-05-14T02:08:21.473Z,11.40
2019-05-14T02:10:52.440Z,11.50
2019-05-14T02:13:21.432Z,11.50
2019-05-14T02:15:52.098Z,11.40
2019-05-14T02:18:21.753Z,11.40
2019-05-14T02:20:52.059Z,11.40
2019-05-14T02:23:22.650Z,11.40
2019-05-14T02:25:51.956Z,11.40
2019-05-14T02:28:22.105Z,11.40
2019-05-14T02:30:57.734Z,11.50
2019-05-14T02:33:21.375Z,11.30
2019-05-14T02:35:50.151Z,11.30
2019-05-14T02:38:19.414Z,11.10
2019-05-14T02:40:50.098Z,11.40
2019-05-14T02:43:20.091Z,11.40
2019-05-14T02:46:02.033Z,11.40
2019-05-14T02:48:20.073Z,11.40
2019-05-14T02:50:49.615Z,11.30
2019-05-14T02:53:19.771Z,11.50
2019-05-14T02:55:49.773Z,11.40
2019-05-14T02:58:20.648Z,11.40
2019-05-14T03:00:49.451Z,11.40
2019-05-14T03:03:19.297Z,11.50
2019-05-14T03:05:49.552Z,11.40
2019-05-14T03:08:20.249Z,11.40
2019-05-14T03:10:50.147Z,11.30
2019-05-14T03:13:20.337Z,11.30
2019-05-14T03:15:49.774Z,11.40
2019-05-14T03:18:19.808Z,11.40
2019-05-14T03:20:50.288Z,11.20
2019-05-14T03:23:22.782Z,11.20
2019-05-14T03:25:49.665Z,11.10
2019-05-14T03:28:19.818Z,11.10
2019-05-14T03:30:52.353Z,11.10
2019-05-14T03:33:21.975Z,11.10
2019-05-14T03:35:58.112Z,11.00
2019-05-14T03:38:21.422Z,11.10
2019-05-14T03:40:50.173Z,11.20
2019-05-14T03:43:19.825Z,11.00
2019-05-14T03:45:49.760Z,11.10
2019-05-14T03:48:19.271Z,11.10
2019-05-14T03:50:49.448Z,11.20
2019-05-14T03:53:19.308Z,10.90
2019-05-14T03:55:50.458Z,10.90
2019-05-14T03:58:21.100Z,11.00
2019-05-14T04:00:51.519Z,11.00
2019-05-14T04:03:20.909Z,11.10
2019-05-14T04:05:50.230Z,11.00
2019-05-14T04:08:21.329Z,10.90
2019-05-14T04:10:53.998Z,10.90
2019-05-14T04:13:23.054Z,10.90
2019-05-14T04:15:55.673Z,10.90
2019-05-14T04:18:28.918Z,11.00
2019-05-14T04:20:59.606Z,10.60
2019-05-14T04:23:30.031Z,10.60
2019-05-14T04:26:00.793Z,10.70
2019-05-14T04:28:32.373Z,10.70
2019-05-14T04:31:02.659Z,10.70
2019-05-14T04:33:34.695Z,10.80
2019-05-14T04:36:03.832Z,10.90
2019-05-14T04:38:32.665Z,10.90
2019-05-14T04:41:01.352Z,10.80
2019-05-14T04:43:30.150Z,11.10
2019-05-14T04:45:59.299Z,11.00
2019-05-14T04:48:36.541Z,10.90
2019-05-14T04:51:00.273Z,10.80
2019-05-14T04:53:30.933Z,10.70
2019-05-14T04:56:00.262Z,10.80
2019-05-14T04:58:29.914Z,10.80
2019-05-14T05:01:00.552Z,10.70
2019-05-14T05:03:31.310Z,10.80
2019-05-14T05:05:59.644Z,10.90
2019-05-14T05:08:30.560Z,10.80
2019-05-14T05:11:00.074Z,10.70
2019-05-14T05:13:29.589Z,10.90
2019-05-14T05:15:59.351Z,10.90
2019-05-14T05:18:29.499Z,11.00
2019-05-14T05:20:58.641Z,10.90
2019-05-14T05:23:28.263Z,11.10
2019-05-14T05:25:58.553Z,11.00
2019-05-14T05:28:28.343Z,11.00
2019-05-14T05:30:58.516Z,11.00
2019-05-14T05:33:29.427Z,11.00
2019-05-14T05:35:59.261Z,10.90
2019-05-14T05:38:29.566Z,11.10
2019-05-14T05:41:00.390Z,11.10
2019-05-14T05:43:29.000Z,11.30
2019-05-14T05:45:59.247Z,11.30
2019-05-14T05:48:28.678Z,11.30
2019-05-14T05:50:59.321Z,11.40
2019-05-14T05:53:28.793Z,11.50
2019-05-14T05:56:00.684Z,11.30
2019-05-14T05:58:30.148Z,11.20
2019-05-14T06:00:59.320Z,11.40
2019-05-14T06:03:32.264Z,11.40
2019-05-14T06:06:04.182Z,11.40
2019-05-14T06:08:33.067Z,11.70
2019-05-14T06:11:03.745Z,11.70
2019-05-14T06:13:34.208Z,11.80
2019-05-14T06:16:03.057Z,11.60
2019-05-14T06:18:34.440Z,11.60
2019-05-14T06:21:19.136Z,11.60
2019-05-14T06:23:52.825Z,11.80
2019-05-14T06:26:21.533Z,11.80
2019-05-14T06:28:50.488Z,12.00
2019-05-14T06:31:19.649Z,12.00
2019-05-14T06:33:48.855Z,12.10
2019-05-14T06:36:19.450Z,12.10
2019-05-14T06:38:49.380Z,12.30
2019-05-14T06:41:19.236Z,12.40
2019-05-14T06:43:48.836Z,12.60
2019-05-14T06:46:19.355Z,12.70
2019-05-14T06:48:48.719Z,12.80
2019-05-14T06:51:20.110Z,13.00
2019-05-14T06:53:50.125Z,12.90
2019-05-14T06:56:22.112Z,13.00
2019-05-14T06:58:50.825Z,13.10
2019-05-14T07:01:19.612Z,13.20
2019-05-14T07:03:49.087Z,13.20
2019-05-14T07:06:18.586Z,13.30
2019-05-14T07:08:48.730Z,13.40
2019-05-14T07:11:19.166Z,13.50
2019-05-14T07:13:49.095Z,13.60
2019-05-14T07:16:19.726Z,13.60
2019-05-14T07:18:52.830Z,13.70
2019-05-14T07:21:19.039Z,13.70
2019-05-14T07:23:48.901Z,13.80
2019-05-14T07:26:19.336Z,13.90
2019-05-14T07:28:49.020Z,14.00
2019-05-14T07:31:18.555Z,14.10
2019-05-14T07:33:49.278Z,14.30
2019-05-14T07:36:19.293Z,14.50
2019-05-14T07:38:48.967Z,14.50
2019-05-14T07:41:19.209Z,14.60
2019-05-14T07:43:48.469Z,14.60
2019-05-14T07:46:19.114Z,14.60
2019-05-14T07:49:03.564Z,14.70
2019-05-14T07:51:19.137Z,14.90
2019-05-14T07:53:48.855Z,15.20
2019-05-14T07:56:18.687Z,15.10
2019-05-14T07:58:49.105Z,15.20
2019-05-14T08:01:18.705Z,15.30
2019-05-14T08:03:48.776Z,15.30
2019-05-14T08:06:18.967Z,15.50
2019-05-14T08:08:49.269Z,15.60
2019-05-14T08:11:19.109Z,15.80
2019-05-14T08:13:51.686Z,15.90
2019-05-14T08:16:20.654Z,15.90
2019-05-14T08:18:49.640Z,16.10
2019-05-14T08:21:19.426Z,16.30
2019-05-14T08:23:48.430Z,16.00
2019-05-14T08:26:19.129Z,16.30
2019-05-14T08:28:48.825Z,16.50
2019-05-14T08:31:18.624Z,16.80
2019-05-14T08:33:48.857Z,17.10
2019-05-14T08:36:18.679Z,17.30
2019-05-14T08:38:49.854Z,17.50
2019-05-14T08:41:19.743Z,17.70
2019-05-14T08:43:49.131Z,18.10
2019-05-14T08:46:21.125Z,18.20
2019-05-14T08:48:50.064Z,17.80
2019-05-14T08:51:19.008Z,17.90
2019-05-14T08:53:50.449Z,18.40
2019-05-14T08:56:19.136Z,18.90
2019-05-14T08:58:49.404Z,19.00
2019-05-14T09:01:19.548Z,19.40
2019-05-14T09:03:49.375Z,19.70
2019-05-14T09:06:18.779Z,19.80
2019-05-14T09:08:54.186Z,19.80
2019-05-14T09:11:25.647Z,19.50
2019-05-14T09:13:53.248Z,19.70
2019-05-14T09:16:38.285Z,19.90
2019-05-14T09:18:52.504Z,20.10
2019-05-14T09:21:21.159Z,20.10
2019-05-14T09:23:49.781Z,20.30
2019-05-14T09:26:18.653Z,20.40
2019-05-14T09:28:48.270Z,20.30
2019-05-14T09:31:19.473Z,20.40
2019-05-14T09:33:49.443Z,20.60
2019-05-14T09:36:23.404Z,20.40
2019-05-14T09:38:49.072Z,20.60
2019-05-14T09:41:18.667Z,20.90
2019-05-14T09:43:48.672Z,21.20
2019-05-14T09:46:18.599Z,21.10
2019-05-14T09:48:48.713Z,20.90
2019-05-14T09:51:18.424Z,20.80
2019-05-14T09:53:49.086Z,21.20
2019-05-14T09:56:20.822Z,21.60
2019-05-14T09:58:49.901Z,21.30
2019-05-14T10:01:19.431Z,21.50
2019-05-14T10:03:49.732Z,21.90
2019-05-14T10:06:20.758Z,21.90
2019-05-14T10:08:49.282Z,22.10
2019-05-14T10:11:18.033Z,22.40
2019-05-14T10:13:48.405Z,22.90
2019-05-14T10:16:18.971Z,23.20
2019-05-14T10:18:49.018Z,23.40
2019-05-14T10:21:18.931Z,23.00
2019-05-14T10:23:47.888Z,23.00
2019-05-14T10:26:18.554Z,22.60
2019-05-14T10:28:48.538Z,23.20
2019-05-14T10:31:18.370Z,23.20
2019-05-14T10:33:48.595Z,23.80
2019-05-14T10:36:19.189Z,23.90
2019-05-14T10:38:48.027Z,24.20
2019-05-14T10:41:18.350Z,24.20
2019-05-14T10:43:49.320Z,24.30
2019-05-14T10:46:19.377Z,24.20
2019-05-14T10:48:47.746Z,24.40
2019-05-14T10:51:18.047Z,24.90
2019-05-14T10:53:48.795Z,24.60
2019-05-14T10:56:19.183Z,25.00
2019-05-14T10:58:49.086Z,24.70
2019-05-14T11:01:22.074Z,24.70
2019-05-14T11:03:48.502Z,24.80
2019-05-14T11:06:18.799Z,25.00
2019-05-14T11:08:49.220Z,25.00
2019-05-14T11:11:18.542Z,25.10
2019-05-14T11:13:47.618Z,25.20
2019-05-14T11:16:18.801Z,25.40
2019-05-14T11:18:49.266Z,25.40
2019-05-14T11:21:24.723Z,25.80
2019-05-14T11:23:49.072Z,25.70
2019-05-14T11:26:18.419Z,25.90
2019-05-14T11:28:49.090Z,25.70
2019-05-14T11:31:19.014Z,25.90
2019-05-14T11:33:49.748Z,25.90
2019-05-14T11:36:18.988Z,26.00
2019-05-14T11:38:50.603Z,26.20
2019-05-14T11:41:19.236Z,26.40
2019-05-14T11:43:49.352Z,25.90
2019-05-14T11:46:29.128Z,25.80
2019-05-14T11:48:49.629Z,26.00
2019-05-14T11:51:19.273Z,26.30
2019-05-14T11:53:50.437Z,26.40
2019-05-14T11:56:19.692Z,26.20
2019-05-14T11:58:50.342Z,26.50
2019-05-14T12:01:19.199Z,26.90
2019-05-14T12:03:50.328Z,26.90
2019-05-14T12:06:21.406Z,27.00
2019-05-14T12:08:50.041Z,27.00
2019-05-14T12:11:19.579Z,26.90
2019-05-14T12:13:48.890Z,26.70
2019-05-14T12:16:17.632Z,26.80
2019-05-14T12:18:48.434Z,26.70
2019-05-14T12:21:16.688Z,27.20
2019-05-14T12:23:45.371Z,27.50
2019-05-14T12:26:14.135Z,27.80
2019-05-14T12:28:42.734Z,28.00
2019-05-14T12:31:11.209Z,28.20
2019-05-14T12:33:40.022Z,28.30
2019-05-14T12:36:10.408Z,28.50
2019-05-14T12:38:39.183Z,28.50
2019-05-14T12:41:09.177Z,28.30
2019-05-14T12:43:39.653Z,28.50
2019-05-14T12:46:10.409Z,28.70
2019-05-14T12:48:39.119Z,28.60
2019-05-14T12:51:08.944Z,28.60
2019-05-14T12:53:39.381Z,28.20
2019-05-14T12:56:08.902Z,28.70
2019-05-14T12:58:44.663Z,29.10
2019-05-14T13:01:08.843Z,29.30
2019-05-14T13:03:38.038Z,29.10
2019-05-14T13:06:09.693Z,29.10
2019-05-14T13:08:38.797Z,28.90
2019-05-14T13:11:09.664Z,28.80
2019-05-14T13:13:42.333Z,29.20
2019-05-14T13:16:08.245Z,29.50
2019-05-14T13:18:38.688Z,29.60
2019-05-14T13:21:09.000Z,29.40
2019-05-14T13:23:38.367Z,29.20
2019-05-14T13:26:10.493Z,29.20
2019-05-14T13:28:39.706Z,29.40
2019-05-14T13:31:08.908Z,29.70
2019-05-14T13:33:39.310Z,29.40
2019-05-14T13:36:08.064Z,29.70
2019-05-14T13:38:39.284Z,29.90
2019-05-14T13:41:08.663Z,29.90
2019-05-14T13:43:40.357Z,29.70
2019-05-14T13:46:10.395Z,29.70
2019-05-14T13:48:43.164Z,29.40
2019-05-14T13:51:09.712Z,29.70
2019-05-14T13:53:39.006Z,30.00
2019-05-14T13:56:08.979Z,30.40
2019-05-14T13:58:38.233Z,30.60
2019-05-14T14:01:09.729Z,31.10
2019-05-14T14:03:46.885Z,30.90
2019-05-14T14:06:10.504Z,30.80
2019-05-14T14:08:42.463Z,30.70
2019-05-14T14:11:12.720Z,30.70
2019-05-14T14:13:39.261Z,30.30
2019-05-14T14:16:13.688Z,29.90
2019-05-14T14:18:39.347Z,30.10
2019-05-14T14:21:09.271Z,30.00
2019-05-14T14:23:39.321Z,29.90
2019-05-14T14:26:09.498Z,29.80
2019-05-14T14:28:39.544Z,29.90
2019-05-14T14:31:11.751Z,30.00
2019-05-14T14:33:40.757Z,29.60
2019-05-14T14:36:09.481Z,29.70
2019-05-14T14:38:40.142Z,29.60
2019-05-14T14:41:10.014Z,29.50
2019-05-14T14:43:43.443Z,29.30
2019-05-14T14:46:14.091Z,29.50
2019-05-14T14:48:39.848Z,29.90
2019-05-14T14:51:08.604Z,29.80
2019-05-14T14:53:52.526Z,30.00
2019-05-14T14:56:11.921Z,29.80
2019-05-14T14:58:41.051Z,29.70
2019-05-14T15:01:10.287Z,30.00
2019-05-14T15:03:39.154Z,30.00
2019-05-14T15:06:09.682Z,29.90
2019-05-14T15:08:39.046Z,29.70
2019-05-14T15:11:08.790Z,29.70
2019-05-14T15:13:39.096Z,29.50
2019-05-14T15:16:13.540Z,29.70
2019-05-14T15:18:38.856Z,29.70
2019-05-14T15:21:09.685Z,29.70
2019-05-14T15:23:42.580Z,29.80
2019-05-14T15:26:12.061Z,29.70
2019-05-14T15:28:39.151Z,29.40
2019-05-14T15:31:08.798Z,29.20
2019-05-14T15:33:39.364Z,29.20
2019-05-14T15:36:09.132Z,29.40
2019-05-14T15:38:39.644Z,29.20
2019-05-14T15:41:13.313Z,29.10
2019-05-14T15:43:40.268Z,28.80
2019-05-14T15:46:09.069Z,28.90
2019-05-14T15:48:39.739Z,28.70
2019-05-14T15:51:14.387Z,29.00
2019-05-14T15:53:39.838Z,29.00
2019-05-14T15:56:08.971Z,28.30
2019-05-14T15:58:39.025Z,28.40
2019-05-14T16:01:09.941Z,28.50
2019-05-14T16:03:41.547Z,28.10
2019-05-14T16:06:09.999Z,27.70
2019-05-14T16:08:44.384Z,27.70
2019-05-14T16:11:13.756Z,27.60
2019-05-14T16:13:42.699Z,27.50
2019-05-14T16:16:11.507Z,27.10
2019-05-14T16:18:40.751Z,27.20
2019-05-14T16:21:10.660Z,27.20
2019-05-14T16:23:39.829Z,27.00
2019-05-14T16:26:09.012Z,27.00
2019-05-14T16:28:39.520Z,27.20
2019-05-14T16:31:08.678Z,27.00
2019-05-14T16:33:40.398Z,26.90
2019-05-14T16:36:12.953Z,26.90
2019-05-14T16:38:41.725Z,26.70
2019-05-14T16:41:13.193Z,26.60
2019-05-14T16:43:41.969Z,26.30
2019-05-14T16:46:10.863Z,26.10
2019-05-14T16:48:39.853Z,25.70
2019-05-14T16:51:09.190Z,25.60
2019-05-14T16:53:38.581Z,25.50
2019-05-14T16:56:08.141Z,25.30
2019-05-14T16:58:38.664Z,24.90
2019-05-14T17:01:09.552Z,25.00
2019-05-14T17:03:39.765Z,24.70
2019-05-14T17:06:08.878Z,24.60
2019-05-14T17:08:39.506Z,24.10
2019-05-14T17:11:08.867Z,23.80
2019-05-14T17:13:38.163Z,23.60
2019-05-14T17:16:08.611Z,23.30
2019-05-14T17:18:37.491Z,23.20
2019-05-14T17:21:08.947Z,23.00
2019-05-14T17:23:39.036Z,22.80
2019-05-14T17:26:08.925Z,22.60
2019-05-14T17:28:40.148Z,22.60
2019-05-14T17:31:07.781Z,22.40
2019-05-14T17:33:39.197Z,22.20
2019-05-14T17:36:09.222Z,22.10
2019-05-14T17:38:39.088Z,22.10
2019-05-14T17:41:09.449Z,21.80
2019-05-14T17:43:39.329Z,21.70
2019-05-14T17:46:10.359Z,21.70
2019-05-14T17:48:39.428Z,21.60
2019-05-14T17:51:09.454Z,21.20
2019-05-14T17:53:38.846Z,21.30
2019-05-14T17:56:08.459Z,21.10
2019-05-14T17:58:43.970Z,21.10
2019-05-14T18:01:12.443Z,21.00
2019-05-14T18:03:41.475Z,21.20
2019-05-14T18:06:10.249Z,20.90
2019-05-14T18:08:39.802Z,20.80
2019-05-14T18:11:08.969Z,20.70
2019-05-14T18:13:39.085Z,20.60
2019-05-14T18:16:09.192Z,20.70
2019-05-14T18:18:38.005Z,20.60
2019-05-14T18:21:09.115Z,20.50
2019-05-14T18:23:41.269Z,20.50
2019-05-14T18:26:09.025Z,20.40
2019-05-14T18:28:38.283Z,20.40
2019-05-14T18:31:09.525Z,20.30
2019-05-14T18:33:39.889Z,20.10
2019-05-14T18:36:10.878Z,20.10
2019-05-14T18:38:44.185Z,20.10
2019-05-14T18:41:19.283Z,20.00
2019-05-14T18:43:58.732Z,20.00
2019-05-14T18:46:28.739Z,19.80
2019-05-14T18:49:04.857Z,19.70
2019-05-14T18:51:33.543Z,19.70
2019-05-14T18:54:04.425Z,19.90
2019-05-14T18:56:39.124Z,19.70
2019-05-14T18:59:08.879Z,19.60
2019-05-14T19:01:39.706Z,19.60
2019-05-14T19:04:08.365Z,19.40
2019-05-14T19:06:50.859Z,19.30
2019-05-14T19:09:21.923Z,19.30
2019-05-14T19:12:00.723Z,19.20
2019-05-14T19:14:30.997Z,19.20
2019-05-14T19:16:59.660Z,19.30
2019-05-14T19:19:29.399Z,19.20
2019-05-14T19:21:58.416Z,19.20
2019-05-14T19:24:28.633Z,19.10
2019-05-14T19:26:59.507Z,19.10
2019-05-14T19:29:28.233Z,19.20
2019-05-14T19:31:56.974Z,19.20
2019-05-14T19:34:25.546Z,19.10
2019-05-14T19:36:54.371Z,19.00
2019-05-14T19:39:23.169Z,19.00
2019-05-14T19:41:51.743Z,18.80
2019-05-14T19:44:20.755Z,18.90
2019-05-14T19:46:49.438Z,19.00
2019-05-14T19:49:18.539Z,18.90
2019-05-14T19:51:48.287Z,18.80
2019-05-14T19:54:21.780Z,18.80
2019-05-14T19:56:56.843Z,18.70
2019-05-14T19:59:21.330Z,18.70
2019-05-14T20:02:11.489Z,18.70
2019-05-14T20:04:40.346Z,18.80
2019-05-14T20:07:09.128Z,18.70
2019-05-14T20:09:38.832Z,18.60
2019-05-14T20:12:08.027Z,18.40
2019-05-14T20:14:40.253Z,18.20
2019-05-14T20:17:09.185Z,18.10
2019-05-14T20:19:39.539Z,17.90
2019-05-14T20:22:08.615Z,17.90
2019-05-14T20:24:41.266Z,17.80
2019-05-14T20:27:12.301Z,17.60
2019-05-14T20:29:39.865Z,17.70
2019-05-14T20:32:11.493Z,17.50
2019-05-14T20:34:39.610Z,17.50
2019-05-14T20:37:08.623Z,17.50
2019-05-14T20:39:38.999Z,17.40
2019-05-14T20:42:09.317Z,17.40
2019-05-14T20:44:38.671Z,17.30
2019-05-14T20:47:09.171Z,17.20
2019-05-14T20:49:38.221Z,17.10
2019-05-14T20:52:08.935Z,16.90
2019-05-14T20:54:37.770Z,16.90
2019-05-14T20:57:22.999Z,16.90
2019-05-14T20:59:38.916Z,16.90
2019-05-14T21:02:08.446Z,16.60
2019-05-14T21:04:37.365Z,16.60
2019-05-14T21:07:08.214Z,16.50
2019-05-14T21:09:38.683Z,16.50
2019-05-14T21:12:08.364Z,16.50
2019-05-14T21:14:38.894Z,16.50
2019-05-14T21:17:08.590Z,16.60
2019-05-14T21:19:38.016Z,16.60
2019-05-14T21:22:08.424Z,16.40
2019-05-14T21:24:39.138Z,16.30
2019-05-14T21:27:09.286Z,16.30
2019-05-14T21:29:38.264Z,16.20
2019-05-14T21:32:08.215Z,16.30
2019-05-14T21:34:38.173Z,16.30
2019-05-14T21:37:09.010Z,16.30
2019-05-14T21:39:38.262Z,16.20
2019-05-14T21:42:11.177Z,16.10
2019-05-14T21:44:39.783Z,16.10
2019-05-14T21:47:08.556Z,16.00
2019-05-14T21:49:39.061Z,16.00
2019-05-14T21:52:09.127Z,15.90
2019-05-14T21:54:39.573Z,15.90
2019-05-14T21:57:11.854Z,15.90
2019-05-14T21:59:41.007Z,15.90
2019-05-14T22:02:24.764Z,15.80
2019-05-14T22:04:44.245Z,15.60
2019-05-14T22:07:15.941Z,15.70
2019-05-14T22:09:44.591Z,15.70
2019-05-14T22:12:13.427Z,15.60
2019-05-14T22:14:42.225Z,15.80
2019-05-14T22:17:11.536Z,15.70
2019-05-14T22:19:40.297Z,15.60
2019-05-14T22:22:09.164Z,15.50
2019-05-14T22:24:38.363Z,15.60
2019-05-14T22:27:09.357Z,15.50
2019-05-14T22:29:37.689Z,15.40
2019-05-14T22:32:08.169Z,15.30
2019-05-14T22:34:38.528Z,15.60
2019-05-14T22:37:06.867Z,15.40
2019-05-14T22:39:35.617Z,15.40
2019-05-14T22:42:04.350Z,15.40
2019-05-14T22:44:36.413Z,15.40
2019-05-14T22:47:05.178Z,15.30
2019-05-14T22:49:36.116Z,15.30
2019-05-14T22:52:04.908Z,15.30
2019-05-14T22:54:33.640Z,15.30
2019-05-14T22:57:02.241Z,15.40
2019-05-14T22:59:30.956Z,15.30
2019-05-14T23:01:59.603Z,15.30
2019-05-14T23:04:28.962Z,15.30
2019-05-14T23:06:58.685Z,15.40
2019-05-14T23:09:29.034Z,15.40
2019-05-14T23:11:58.920Z,15.20
2019-05-14T23:14:28.217Z,15.20
2019-05-14T23:16:57.075Z,15.10
2019-05-14T23:19:25.973Z,15.10
2019-05-14T23:21:54.731Z,15.00
2019-05-14T23:24:23.413Z,15.00
2019-05-14T23:26:52.215Z,14.90
2019-05-14T23:29:21.136Z,14.70
2019-05-14T23:31:49.782Z,14.70
2019-05-14T23:34:19.066Z,14.70
2019-05-14T23:36:48.268Z,14.80
2019-05-14T23:39:17.148Z,14.90
2019-05-14T23:41:46.123Z,14.60
2019-05-14T23:44:14.693Z,14.50
2019-05-14T23:46:43.441Z,14.40
2019-05-14T23:49:13.601Z,14.30
2019-05-14T23:51:42.224Z,14.20
2019-05-14T23:54:10.839Z,14.20
2019-05-14T23:56:39.575Z,14.20
2019-05-14T23:59:09.249Z,14.10
